createdAt,value
2019-05-07T00:00:13.762Z,7.29
2019-05-07T00:01:13.778Z,7.32
2019-05-07T00:02:13.730Z,7.32
2019-05-07T00:03:13.713Z,7.33
2019-05-07T00:04:13.686Z,7.36
2019-05-07T00:05:13.704Z,7.33
2019-05-07T00:06:13.682Z,7.32
2019-05-07T00:07:13.644Z,7.26
2019-05-07T00:08:13.629Z,7.28
2019-05-07T00:09:13.611Z,7.29
2019-05-07T00:10:13.594Z,7.26
2019-05-07T00:11:13.596Z,7.26
2019-05-07T00:12:13.544Z,7.23
2019-05-07T00:13:13.534Z,7.22
2019-05-07T00:14:13.505Z,7.14
2019-05-07T00:15:13.527Z,7.13
2019-05-07T00:16:13.469Z,7.14
2019-05-07T00:17:13.460Z,7.15
2019-05-07T00:18:13.436Z,7.22
2019-05-07T00:19:13.419Z,7.23
2019-05-07T00:20:13.436Z,7.23
2019-05-07T00:21:13.382Z,7.23
2019-05-07T00:22:13.372Z,7.23
2019-05-07T00:23:13.355Z,7.26
2019-05-07T00:24:13.431Z,7.26
2019-05-07T00:25:13.337Z,7.28
2019-05-07T00:26:13.462Z,7.28
2019-05-07T00:27:13.282Z,7.29
2019-05-07T00:28:13.258Z,7.31
2019-05-07T00:29:13.237Z,7.31
2019-05-07T00:30:13.246Z,7.32
2019-05-07T00:31:13.225Z,7.31
2019-05-07T00:32:13.184Z,7.32
2019-05-07T00:33:13.296Z,7.31
2019-05-07T00:34:13.161Z,7.31
2019-05-07T00:35:13.267Z,7.32
2019-05-07T00:36:13.117Z,7.32
2019-05-07T00:37:13.235Z,7.33
2019-05-07T00:38:13.085Z,7.33
2019-05-07T00:39:13.057Z,7.29
2019-05-07T00:40:13.076Z,7.29
2019-05-07T00:41:13.064Z,7.31
2019-05-07T00:42:13.004Z,7.26
2019-05-07T00:43:12.999Z,7.22
2019-05-07T00:44:13.586Z,7.22
2019-05-07T00:45:19.676Z,7.19
2019-05-07T00:46:13.048Z,7.13
2019-05-07T00:47:12.911Z,7.07
2019-05-07T00:48:12.903Z,6.97
2019-05-07T00:49:12.883Z,6.96
2019-05-07T00:50:13.014Z,6.93
2019-05-07T00:51:12.941Z,6.92
2019-05-07T00:52:14.120Z,6.92
2019-05-07T00:53:13.178Z,6.92
2019-05-07T00:54:12.788Z,6.90
2019-05-07T00:55:12.914Z,6.85
2019-05-07T00:56:12.748Z,6.83
2019-05-07T00:57:12.733Z,6.82
2019-05-07T00:58:13.353Z,6.82
2019-05-07T00:59:13.189Z,6.80
2019-05-07T01:00:13.185Z,6.80
2019-05-07T01:01:13.129Z,6.78
2019-05-07T01:02:12.827Z,6.78
2019-05-07T01:03:12.987Z,6.77
2019-05-07T01:04:12.609Z,6.74
2019-05-07T01:05:12.595Z,6.74
2019-05-07T01:06:12.948Z,6.72
2019-05-07T01:07:12.577Z,6.70
2019-05-07T01:08:13.215Z,6.71
2019-05-07T01:09:12.520Z,6.68
2019-05-07T01:10:12.792Z,6.70
2019-05-07T01:11:13.134Z,6.70
2019-05-07T01:12:12.582Z,6.70
2019-05-07T01:13:12.752Z,6.70
2019-05-07T01:14:12.538Z,6.70
2019-05-07T01:15:12.914Z,6.71
2019-05-07T01:16:12.884Z,6.70
2019-05-07T01:17:13.015Z,6.72
2019-05-07T01:18:12.513Z,6.72
2019-05-07T01:19:12.657Z,6.72
2019-05-07T01:20:12.640Z,6.74
2019-05-07T01:21:13.194Z,6.72
2019-05-07T01:22:12.673Z,6.72
2019-05-07T01:23:13.370Z,6.70
2019-05-07T01:24:12.374Z,6.70
2019-05-07T01:25:12.829Z,6.65
2019-05-07T01:26:12.493Z,6.65
2019-05-07T01:27:12.911Z,6.62
2019-05-07T01:28:13.221Z,6.59
2019-05-07T01:29:12.830Z,6.62
2019-05-07T01:30:12.975Z,6.62
2019-05-07T01:31:12.571Z,6.62
2019-05-07T01:32:12.667Z,6.60
2019-05-07T01:33:12.286Z,6.60
2019-05-07T01:34:12.175Z,6.60
2019-05-07T01:35:13.000Z,6.59
2019-05-07T01:36:13.246Z,6.56
2019-05-07T01:37:12.438Z,6.54
2019-05-07T01:38:12.379Z,6.50
2019-05-07T01:39:13.067Z,6.47
2019-05-07T01:40:12.305Z,6.44
2019-05-07T01:41:12.584Z,6.39
2019-05-07T01:42:12.743Z,6.36
2019-05-07T01:43:12.130Z,6.34
2019-05-07T01:44:12.804Z,6.34
2019-05-07T01:45:12.910Z,6.34
2019-05-07T01:46:12.416Z,6.35
2019-05-07T01:47:13.034Z,6.32
2019-05-07T01:48:11.889Z,6.34
2019-05-07T01:49:12.578Z,6.31
2019-05-07T01:50:13.380Z,6.32
2019-05-07T01:51:12.852Z,6.31
2019-05-07T01:52:13.314Z,6.34
2019-05-07T01:53:12.238Z,6.32
2019-05-07T01:54:12.903Z,6.35
2019-05-07T01:55:12.974Z,6.34
2019-05-07T01:56:12.409Z,6.35
2019-05-07T01:57:12.211Z,6.32
2019-05-07T01:58:12.589Z,6.26
2019-05-07T01:59:12.101Z,6.25
2019-05-07T02:00:13.063Z,6.20
2019-05-07T02:01:13.117Z,6.19
2019-05-07T02:02:12.135Z,6.15
2019-05-07T02:03:12.131Z,6.09
2019-05-07T02:04:12.776Z,6.10
2019-05-07T02:05:12.264Z,6.01
2019-05-07T02:06:13.178Z,5.95
2019-05-07T02:07:11.973Z,5.94
2019-05-07T02:08:12.438Z,5.94
2019-05-07T02:09:12.982Z,5.98
2019-05-07T02:10:11.960Z,6.06
2019-05-07T02:11:12.871Z,6.07
2019-05-07T02:12:13.126Z,6.10
2019-05-07T02:13:12.577Z,6.13
2019-05-07T02:14:13.486Z,6.16
2019-05-07T02:15:11.954Z,6.17
2019-05-07T02:16:12.413Z,6.19
2019-05-07T02:17:13.460Z,6.22
2019-05-07T02:18:12.582Z,6.22
2019-05-07T02:19:12.652Z,6.22
2019-05-07T02:20:13.052Z,6.25
2019-05-07T02:21:12.892Z,6.25
2019-05-07T02:22:13.274Z,6.26
2019-05-07T02:23:12.829Z,6.29
2019-05-07T02:24:12.649Z,6.29
2019-05-07T02:25:12.666Z,6.28
2019-05-07T02:26:13.174Z,6.29
2019-05-07T02:27:12.588Z,6.26
2019-05-07T02:28:12.871Z,6.22
2019-05-07T02:29:12.266Z,6.25
2019-05-07T02:30:14.412Z,6.25
2019-05-07T02:31:14.668Z,6.25
2019-05-07T02:32:13.310Z,6.25
2019-05-07T02:33:13.523Z,6.26
2019-05-07T02:34:13.817Z,6.26
2019-05-07T02:35:13.590Z,6.26
2019-05-07T02:36:13.922Z,6.28
2019-05-07T02:37:10.908Z,6.28
2019-05-07T02:38:13.627Z,6.28
2019-05-07T02:39:12.828Z,6.26
2019-05-07T02:40:13.973Z,6.20
2019-05-07T02:41:13.955Z,6.17
2019-05-07T02:42:13.040Z,6.15
2019-05-07T02:43:13.682Z,6.15
2019-05-07T02:44:13.391Z,6.13
2019-05-07T02:45:13.271Z,6.12
2019-05-07T02:46:24.136Z,6.12
2019-05-07T02:47:12.919Z,6.12
2019-05-07T02:48:12.889Z,6.13
2019-05-07T02:49:13.873Z,6.13
2019-05-07T02:50:13.082Z,6.13
2019-05-07T02:51:13.149Z,6.15
2019-05-07T02:52:13.246Z,6.15
2019-05-07T02:53:13.127Z,6.15
2019-05-07T02:54:13.234Z,6.15
2019-05-07T02:55:13.172Z,6.13
2019-05-07T02:56:12.960Z,6.12
2019-05-07T02:57:16.636Z,6.12
2019-05-07T02:58:13.534Z,6.10
2019-05-07T02:59:13.349Z,6.09
2019-05-07T03:00:14.119Z,6.07
2019-05-07T03:01:13.450Z,6.07
2019-05-07T03:02:10.448Z,6.06
2019-05-07T03:03:13.493Z,6.02
2019-05-07T03:04:12.946Z,6.01
2019-05-07T03:05:13.406Z,5.97
2019-05-07T03:06:13.281Z,5.94
2019-05-07T03:07:13.083Z,5.90
2019-05-07T03:08:12.972Z,5.84
2019-05-07T03:09:14.097Z,5.80
2019-05-07T03:10:10.310Z,5.77
2019-05-07T03:11:13.716Z,5.76
2019-05-07T03:12:13.223Z,5.73
2019-05-07T03:13:13.429Z,5.72
2019-05-07T03:14:10.212Z,5.73
2019-05-07T03:15:12.971Z,5.72
2019-05-07T03:16:12.814Z,5.70
2019-05-07T03:17:12.968Z,5.69
2019-05-07T03:18:13.475Z,5.67
2019-05-07T03:19:13.093Z,5.62
2019-05-07T03:20:10.107Z,5.61
2019-05-07T03:21:12.670Z,5.61
2019-05-07T03:22:13.257Z,5.59
2019-05-07T03:23:10.071Z,5.61
2019-05-07T03:24:10.038Z,5.61
2019-05-07T03:25:10.015Z,5.62
2019-05-07T03:26:09.988Z,5.62
2019-05-07T03:27:09.968Z,5.62
2019-05-07T03:28:10.005Z,5.61
2019-05-07T03:29:12.840Z,5.61
2019-05-07T03:30:09.927Z,5.59
2019-05-07T03:31:09.897Z,5.58
2019-05-07T03:32:09.872Z,5.56
2019-05-07T03:33:09.929Z,5.55
2019-05-07T03:34:09.878Z,5.51
2019-05-07T03:35:09.830Z,5.47
2019-05-07T03:36:09.798Z,5.46
2019-05-07T03:37:13.298Z,5.43
2019-05-07T03:38:09.770Z,5.38
2019-05-07T03:39:09.774Z,5.34
2019-05-07T03:40:09.730Z,5.31
2019-05-07T03:41:09.703Z,5.28
2019-05-07T03:42:12.731Z,5.23
2019-05-07T03:43:09.675Z,5.20
2019-05-07T03:44:09.673Z,5.18
2019-05-07T03:45:09.633Z,5.16
2019-05-07T03:46:09.606Z,5.18
2019-05-07T03:47:09.593Z,5.16
2019-05-07T03:48:13.316Z,5.15
2019-05-07T03:49:09.577Z,5.18
2019-05-07T03:50:09.533Z,5.18
2019-05-07T03:51:09.513Z,5.18
2019-05-07T03:52:09.496Z,5.20
2019-05-07T03:53:09.486Z,5.23
2019-05-07T03:54:09.489Z,5.20
2019-05-07T03:55:09.447Z,5.20
2019-05-07T03:56:12.876Z,5.15
2019-05-07T03:57:11.022Z,5.08
2019-05-07T03:58:09.384Z,5.00
2019-05-07T03:59:09.374Z,4.87
2019-05-07T04:00:09.344Z,4.83
2019-05-07T04:01:09.339Z,4.75
2019-05-07T04:02:09.307Z,4.74
2019-05-07T04:03:09.293Z,4.71
2019-05-07T04:04:09.278Z,4.70
2019-05-07T04:05:09.257Z,4.68
2019-05-07T04:06:09.242Z,4.57
2019-05-07T04:07:09.213Z,4.53
2019-05-07T04:08:09.198Z,4.48
2019-05-07T04:09:09.181Z,4.52
2019-05-07T04:10:10.177Z,4.53
2019-05-07T04:11:09.145Z,4.56
2019-05-07T04:12:09.142Z,4.57
2019-05-07T04:13:09.100Z,4.53
2019-05-07T04:14:09.079Z,4.56
2019-05-07T04:15:09.057Z,4.52
2019-05-07T04:16:09.050Z,4.43
2019-05-07T04:17:17.502Z,4.39
2019-05-07T04:18:09.006Z,4.31
2019-05-07T04:19:09.028Z,4.30
2019-05-07T04:20:08.972Z,4.28
2019-05-07T04:21:08.950Z,4.30
2019-05-07T04:22:08.947Z,4.30
2019-05-07T04:23:08.928Z,4.32
2019-05-07T04:24:08.888Z,4.38
2019-05-07T04:25:08.869Z,4.42
2019-05-07T04:26:08.868Z,4.43
2019-05-07T04:27:08.830Z,4.45
2019-05-07T04:28:08.839Z,4.43
2019-05-07T04:29:08.788Z,4.39
2019-05-07T04:30:08.777Z,4.39
2019-05-07T04:31:08.761Z,4.39
2019-05-07T04:32:08.746Z,4.39
2019-05-07T04:33:08.783Z,4.40
2019-05-07T04:34:08.703Z,4.42
2019-05-07T04:35:08.676Z,4.42
2019-05-07T04:36:08.651Z,4.39
2019-05-07T04:37:08.640Z,4.36
2019-05-07T04:38:08.620Z,4.38
2019-05-07T04:39:08.629Z,4.38
2019-05-07T04:40:08.588Z,4.38
2019-05-07T04:41:08.567Z,4.40
2019-05-07T04:42:08.550Z,4.43
2019-05-07T04:43:08.559Z,4.48
2019-05-07T04:44:08.508Z,4.52
2019-05-07T04:45:08.490Z,4.52
2019-05-07T04:46:08.473Z,4.57
2019-05-07T04:47:08.450Z,4.58
2019-05-07T04:48:08.433Z,4.63
2019-05-07T04:49:08.436Z,4.64
2019-05-07T04:50:08.390Z,4.60
2019-05-07T04:51:08.377Z,4.57
2019-05-07T04:52:11.375Z,4.53
2019-05-07T04:53:08.364Z,4.57
2019-05-07T04:54:08.454Z,4.57
2019-05-07T04:55:08.294Z,4.56
2019-05-07T04:56:08.271Z,4.56
2019-05-07T04:57:08.262Z,4.57
2019-05-07T04:58:09.136Z,4.58
2019-05-07T04:59:08.213Z,4.53
2019-05-07T05:00:08.203Z,4.57
2019-05-07T05:01:08.180Z,4.56
2019-05-07T05:02:08.153Z,4.57
2019-05-07T05:03:08.140Z,4.58
2019-05-07T05:04:24.237Z,4.58
2019-05-07T05:05:08.108Z,4.61
2019-05-07T05:06:08.118Z,4.64
2019-05-07T05:07:08.063Z,4.67
2019-05-07T05:08:08.041Z,4.67
2019-05-07T05:09:08.056Z,4.68
2019-05-07T05:10:08.039Z,4.74
2019-05-07T05:11:07.986Z,4.74
2019-05-07T05:12:07.997Z,4.76
2019-05-07T05:13:07.947Z,4.78
2019-05-07T05:14:08.220Z,4.82
2019-05-07T05:15:07.937Z,4.82
2019-05-07T05:16:07.896Z,4.84
2019-05-07T05:17:07.869Z,4.86
2019-05-07T05:18:07.852Z,4.87
2019-05-07T05:19:07.833Z,4.90
2019-05-07T05:20:07.850Z,4.92
2019-05-07T05:21:07.821Z,4.92
2019-05-07T05:22:07.779Z,4.90
2019-05-07T05:23:07.758Z,4.83
2019-05-07T05:24:07.743Z,4.79
2019-05-07T05:25:07.856Z,4.79
2019-05-07T05:26:07.708Z,4.78
2019-05-07T05:27:07.681Z,4.74
2019-05-07T05:28:07.668Z,4.67
2019-05-07T05:29:07.649Z,4.68
2019-05-07T05:30:07.626Z,4.67
2019-05-07T05:31:07.603Z,4.66
2019-05-07T05:32:07.601Z,4.58
2019-05-07T05:33:07.565Z,4.58
2019-05-07T05:34:07.551Z,4.58
2019-05-07T05:35:07.528Z,4.64
2019-05-07T05:36:07.513Z,4.67
2019-05-07T05:37:07.487Z,4.75
2019-05-07T05:38:07.473Z,4.78
2019-05-07T05:39:07.452Z,4.83
2019-05-07T05:40:08.929Z,4.89
2019-05-07T05:41:07.420Z,4.94
2019-05-07T05:42:07.399Z,4.98
2019-05-07T05:43:07.377Z,5.04
2019-05-07T05:44:07.351Z,5.08
2019-05-07T05:45:07.360Z,5.15
2019-05-07T05:46:07.324Z,5.18
2019-05-07T05:47:07.307Z,5.22
2019-05-07T05:48:08.405Z,5.28
2019-05-07T05:49:07.256Z,5.31
2019-05-07T05:50:07.235Z,5.36
2019-05-07T05:51:07.243Z,5.38
2019-05-07T05:52:07.202Z,5.41
2019-05-07T05:53:07.192Z,5.44
2019-05-07T05:54:07.162Z,5.47
2019-05-07T05:55:07.140Z,5.54
2019-05-07T05:56:07.151Z,5.55
2019-05-07T05:57:07.104Z,5.58
2019-05-07T05:58:07.092Z,5.64
2019-05-07T05:59:07.078Z,5.67
2019-05-07T06:00:07.047Z,5.70
2019-05-07T06:01:07.174Z,5.72
2019-05-07T06:02:07.018Z,5.76
2019-05-07T06:03:07.004Z,5.79
2019-05-07T06:04:06.990Z,5.81
2019-05-07T06:05:06.959Z,5.87
2019-05-07T06:06:06.947Z,5.92
2019-05-07T06:07:11.682Z,5.97
2019-05-07T06:08:06.899Z,6.01
2019-05-07T06:09:06.879Z,6.05
2019-05-07T06:10:06.863Z,6.09
2019-05-07T06:11:06.846Z,6.12
2019-05-07T06:12:06.862Z,6.15
2019-05-07T06:13:06.835Z,6.16
2019-05-07T06:14:06.796Z,6.20
2019-05-07T06:15:06.776Z,6.26
2019-05-07T06:16:06.784Z,6.28
2019-05-07T06:17:06.739Z,6.28
2019-05-07T06:18:17.881Z,6.29
2019-05-07T06:19:06.701Z,6.32
2019-05-07T06:20:06.688Z,6.35
2019-05-07T06:21:06.661Z,6.36
2019-05-07T06:22:06.645Z,6.41
2019-05-07T06:23:06.624Z,6.46
2019-05-07T06:24:06.604Z,6.50
2019-05-07T06:25:07.124Z,6.52
2019-05-07T06:26:06.607Z,6.54
2019-05-07T06:27:06.545Z,6.54
2019-05-07T06:28:06.540Z,6.59
2019-05-07T06:29:06.544Z,6.65
2019-05-07T06:30:06.496Z,6.68
2019-05-07T06:31:06.486Z,6.72
2019-05-07T06:32:06.458Z,6.75
2019-05-07T06:33:06.447Z,6.80
2019-05-07T06:34:06.448Z,6.85
2019-05-07T06:35:06.409Z,6.90
2019-05-07T06:36:06.388Z,6.95
2019-05-07T06:37:06.374Z,7.00
2019-05-07T06:38:06.348Z,7.03
2019-05-07T06:39:06.352Z,7.04
2019-05-07T06:40:06.319Z,7.03
2019-05-07T06:41:06.298Z,7.03
2019-05-07T06:42:06.272Z,6.95
2019-05-07T06:43:06.262Z,6.89
2019-05-07T06:44:06.277Z,6.85
2019-05-07T06:45:06.220Z,6.86
2019-05-07T06:46:06.204Z,6.89
2019-05-07T06:47:06.186Z,6.93
2019-05-07T06:48:06.169Z,6.97
2019-05-07T06:49:06.248Z,7.04
2019-05-07T06:50:07.008Z,7.07
2019-05-07T06:51:06.131Z,7.11
2019-05-07T06:52:06.096Z,7.15
2019-05-07T06:53:06.085Z,7.19
2019-05-07T06:54:06.083Z,7.25
2019-05-07T06:55:06.086Z,7.31
2019-05-07T06:56:06.019Z,7.39
2019-05-07T06:57:06.015Z,7.43
2019-05-07T06:58:05.983Z,7.48
2019-05-07T06:59:06.056Z,7.55
2019-05-07T07:00:05.949Z,7.61
2019-05-07T07:01:05.939Z,7.67
2019-05-07T07:02:05.932Z,7.74
2019-05-07T07:03:05.897Z,7.81
2019-05-07T07:04:05.878Z,7.90
2019-05-07T07:05:05.887Z,7.99
2019-05-07T07:06:05.841Z,8.06
2019-05-07T07:07:05.834Z,8.11
2019-05-07T07:08:05.805Z,8.17
2019-05-07T07:09:05.802Z,8.23
2019-05-07T07:10:05.907Z,8.27
2019-05-07T07:11:05.763Z,8.26
2019-05-07T07:12:05.731Z,8.28
2019-05-07T07:13:05.725Z,8.34
2019-05-07T07:14:05.698Z,8.38
2019-05-07T07:15:05.689Z,8.39
2019-05-07T07:16:05.690Z,8.34
2019-05-07T07:17:05.656Z,8.38
2019-05-07T07:18:05.636Z,8.42
2019-05-07T07:19:05.612Z,8.46
2019-05-07T07:20:05.629Z,8.53
2019-05-07T07:21:05.604Z,8.56
2019-05-07T07:22:05.578Z,8.60
2019-05-07T07:23:05.549Z,8.63
2019-05-07T07:24:05.529Z,8.69
2019-05-07T07:25:06.683Z,8.72
2019-05-07T07:26:05.515Z,8.78
2019-05-07T07:27:05.473Z,8.82
2019-05-07T07:28:05.481Z,8.86
2019-05-07T07:29:05.440Z,8.87
2019-05-07T07:30:05.423Z,8.87
2019-05-07T07:31:05.440Z,8.92
2019-05-07T07:32:05.393Z,8.95
2019-05-07T07:33:05.370Z,8.96
2019-05-07T07:34:05.353Z,8.92
2019-05-07T07:35:05.343Z,8.95
2019-05-07T07:36:05.375Z,8.96
2019-05-07T07:37:09.767Z,9.00
2019-05-07T07:38:05.287Z,8.99
2019-05-07T07:39:05.274Z,9.02
2019-05-07T07:40:05.251Z,9.03
2019-05-07T07:41:05.482Z,8.86
2019-05-07T07:42:05.302Z,8.63
2019-05-07T07:43:07.115Z,8.60
2019-05-07T07:44:05.182Z,8.57
2019-05-07T07:45:05.184Z,8.59
2019-05-07T07:46:05.155Z,8.64
2019-05-07T07:47:05.158Z,8.66
2019-05-07T07:48:05.174Z,8.59
2019-05-07T07:49:10.902Z,8.57
2019-05-07T07:50:05.091Z,8.59
2019-05-07T07:51:05.074Z,8.44
2019-05-07T07:52:05.052Z,8.42
2019-05-07T07:53:05.041Z,8.49
2019-05-07T07:54:05.050Z,8.54
2019-05-07T07:55:05.016Z,8.61
2019-05-07T07:56:04.987Z,8.69
2019-05-07T07:57:04.971Z,8.78
2019-05-07T07:58:05.016Z,8.87
2019-05-07T07:59:04.928Z,8.93
2019-05-07T08:00:04.923Z,8.93
2019-05-07T08:01:04.894Z,8.86
2019-05-07T08:02:04.884Z,8.81
2019-05-07T08:03:04.863Z,8.74
2019-05-07T08:04:04.874Z,8.71
2019-05-07T08:05:04.828Z,8.64
2019-05-07T08:06:04.817Z,8.71
2019-05-07T08:07:04.798Z,8.68
2019-05-07T08:08:04.812Z,8.74
2019-05-07T08:09:04.784Z,8.86
2019-05-07T08:10:04.750Z,9.00
2019-05-07T08:11:04.727Z,9.16
2019-05-07T08:12:04.901Z,9.30
2019-05-07T08:13:04.744Z,9.37
2019-05-07T08:14:04.689Z,9.37
2019-05-07T08:15:17.221Z,9.33
2019-05-07T08:16:04.651Z,9.31
2019-05-07T08:17:04.632Z,9.34
2019-05-07T08:18:04.618Z,9.30
2019-05-07T08:19:18.348Z,9.16
2019-05-07T08:20:04.582Z,9.13
2019-05-07T08:21:07.790Z,9.12
2019-05-07T08:22:04.933Z,9.08
2019-05-07T08:23:04.533Z,9.09
2019-05-07T08:24:04.557Z,9.00
2019-05-07T08:25:04.507Z,9.02
2019-05-07T08:26:04.481Z,9.08
2019-05-07T08:27:04.502Z,9.16
2019-05-07T08:28:04.453Z,9.21
2019-05-07T08:29:04.493Z,9.16
2019-05-07T08:30:04.413Z,9.13
2019-05-07T08:31:04.399Z,9.08
2019-05-07T08:32:04.385Z,8.97
2019-05-07T08:33:04.364Z,8.95
2019-05-07T08:34:04.354Z,9.05
2019-05-07T08:35:04.355Z,9.16
2019-05-07T08:36:04.329Z,9.30
2019-05-07T08:37:04.306Z,9.44
2019-05-07T08:38:04.293Z,9.52
2019-05-07T08:39:04.268Z,9.69
2019-05-07T08:40:04.300Z,9.76
2019-05-07T08:41:04.262Z,9.91
2019-05-07T08:42:04.213Z,10.05
2019-05-07T08:43:04.227Z,10.23
2019-05-07T08:44:11.625Z,10.30
2019-05-07T08:45:04.197Z,10.27
2019-05-07T08:46:04.157Z,10.27
2019-05-07T08:47:04.166Z,10.13
2019-05-07T08:48:04.114Z,10.13
2019-05-07T08:49:04.107Z,10.21
2019-05-07T08:50:04.087Z,10.55
2019-05-07T08:51:04.095Z,10.90
2019-05-07T08:52:04.084Z,10.83
2019-05-07T08:53:04.181Z,10.72
2019-05-07T08:54:04.034Z,10.48
2019-05-07T08:55:04.006Z,10.43
2019-05-07T08:56:03.990Z,10.45
2019-05-07T08:57:03.972Z,10.42
2019-05-07T08:58:03.957Z,10.45
2019-05-07T08:59:03.993Z,10.64
2019-05-07T09:00:04.688Z,10.80
2019-05-07T09:01:03.916Z,10.98
2019-05-07T09:02:03.927Z,11.10
2019-05-07T09:03:03.919Z,11.52
2019-05-07T09:04:03.930Z,11.73
2019-05-07T09:05:03.850Z,12.37
2019-05-07T09:06:03.935Z,13.06
2019-05-07T09:07:03.826Z,13.54
2019-05-07T09:08:03.813Z,13.83
2019-05-07T09:09:03.796Z,13.54
2019-05-07T09:10:03.782Z,13.45
2019-05-07T09:11:03.767Z,12.94
2019-05-07T09:12:03.752Z,12.61
2019-05-07T09:13:03.741Z,12.39
2019-05-07T09:14:03.751Z,12.21
2019-05-07T09:15:03.724Z,12.23
2019-05-07T09:16:03.697Z,12.28
2019-05-07T09:17:03.695Z,12.28
2019-05-07T09:18:03.718Z,12.10
2019-05-07T09:19:03.661Z,11.65
2019-05-07T09:20:03.639Z,11.34
2019-05-07T09:21:03.629Z,11.19
2019-05-07T09:22:03.639Z,11.13
2019-05-07T09:23:03.598Z,10.98
2019-05-07T09:24:03.601Z,10.75
2019-05-07T09:25:03.578Z,10.58
2019-05-07T09:26:03.554Z,10.69
2019-05-07T09:27:03.544Z,11.33
2019-05-07T09:28:03.535Z,12.00
2019-05-07T09:29:03.514Z,12.58
2019-05-07T09:30:03.504Z,13.24
2019-05-07T09:31:03.483Z,13.70
2019-05-07T09:32:03.469Z,13.65
2019-05-07T09:33:03.461Z,13.40
2019-05-07T09:34:03.480Z,12.76
2019-05-07T09:35:03.427Z,11.99
2019-05-07T09:36:03.439Z,11.52
2019-05-07T09:37:03.451Z,11.20
2019-05-07T09:38:03.428Z,10.90
2019-05-07T09:39:03.534Z,10.90
2019-05-07T09:40:03.362Z,10.82
2019-05-07T09:41:03.338Z,10.87
2019-05-07T09:42:03.327Z,10.98
2019-05-07T09:43:03.403Z,11.04
2019-05-07T09:44:03.301Z,11.08
2019-05-07T09:45:03.310Z,11.26
2019-05-07T09:46:03.297Z,11.35
2019-05-07T09:47:03.253Z,11.31
2019-05-07T09:48:03.244Z,11.22
2019-05-07T09:49:03.273Z,10.94
2019-05-07T09:50:07.147Z,10.80
2019-05-07T09:51:03.220Z,10.77
2019-05-07T09:52:05.917Z,10.82
2019-05-07T09:53:03.172Z,10.90
2019-05-07T09:54:03.154Z,10.94
2019-05-07T09:55:13.758Z,10.86
2019-05-07T09:56:03.149Z,10.92
2019-05-07T09:57:03.109Z,10.76
2019-05-07T09:58:03.103Z,10.71
2019-05-07T09:59:03.074Z,10.77
2019-05-07T10:00:03.107Z,10.68
2019-05-07T10:01:03.068Z,10.76
2019-05-07T10:02:03.037Z,10.76
2019-05-07T10:03:03.011Z,10.75
2019-05-07T10:04:03.018Z,10.69
2019-05-07T10:05:02.988Z,10.57
2019-05-07T10:06:03.013Z,10.46
2019-05-07T10:07:02.962Z,10.38
2019-05-07T10:08:02.938Z,10.30
2019-05-07T10:09:02.980Z,10.27
2019-05-07T10:10:03.369Z,10.30
2019-05-07T10:11:02.907Z,10.34
2019-05-07T10:12:02.912Z,10.38
2019-05-07T10:13:02.861Z,10.46
2019-05-07T10:14:02.850Z,10.43
2019-05-07T10:15:03.175Z,10.46
2019-05-07T10:16:04.309Z,10.51
2019-05-07T10:17:02.855Z,10.61
2019-05-07T10:18:02.835Z,10.69
2019-05-07T10:19:02.773Z,10.83
2019-05-07T10:20:07.238Z,11.05
2019-05-07T10:21:02.771Z,11.40
2019-05-07T10:22:02.726Z,11.74
2019-05-07T10:23:02.746Z,11.89
2019-05-07T10:24:02.704Z,12.29
2019-05-07T10:25:03.049Z,12.78
2019-05-07T10:26:02.666Z,12.93
2019-05-07T10:27:02.702Z,12.90
2019-05-07T10:28:02.705Z,12.70
2019-05-07T10:29:02.693Z,12.69
2019-05-07T10:30:02.717Z,12.70
2019-05-07T10:31:02.595Z,12.72
2019-05-07T10:32:02.717Z,12.66
2019-05-07T10:33:02.590Z,12.68
2019-05-07T10:34:03.037Z,12.84
2019-05-07T10:35:02.546Z,12.98
2019-05-07T10:36:02.526Z,13.46
2019-05-07T10:37:02.769Z,13.40
2019-05-07T10:38:02.642Z,13.28
2019-05-07T10:39:02.612Z,13.11
2019-05-07T10:40:03.037Z,12.78
2019-05-07T10:41:03.071Z,12.57
2019-05-07T10:42:02.445Z,12.65
2019-05-07T10:43:02.435Z,12.61
2019-05-07T10:44:03.075Z,12.53
2019-05-07T10:45:03.088Z,12.25
2019-05-07T10:46:02.469Z,12.00
2019-05-07T10:47:02.927Z,12.03
2019-05-07T10:48:22.043Z,12.07
2019-05-07T10:49:02.348Z,12.05
2019-05-07T10:50:02.856Z,11.93
2019-05-07T10:51:02.328Z,11.91
2019-05-07T10:52:02.320Z,11.97
2019-05-07T10:53:02.298Z,11.93
2019-05-07T10:54:12.483Z,12.02
2019-05-07T10:55:02.885Z,12.17
2019-05-07T10:56:02.787Z,12.18
2019-05-07T10:57:02.244Z,11.91
2019-05-07T10:58:10.264Z,11.80
2019-05-07T10:59:02.929Z,11.73
2019-05-07T11:00:03.226Z,11.71
2019-05-07T11:01:02.935Z,11.53
2019-05-07T11:02:02.490Z,11.43
2019-05-07T11:03:02.490Z,11.38
2019-05-07T11:04:02.333Z,11.25
2019-05-07T11:05:02.413Z,11.20
2019-05-07T11:06:02.111Z,11.18
2019-05-07T11:07:02.091Z,11.25
2019-05-07T11:08:02.533Z,11.16
2019-05-07T11:09:02.073Z,11.16
2019-05-07T11:10:02.092Z,11.07
2019-05-07T11:11:02.925Z,11.00
2019-05-07T11:12:02.576Z,10.92
2019-05-07T11:13:02.494Z,10.92
2019-05-07T11:14:02.050Z,10.84
2019-05-07T11:15:02.272Z,10.80
2019-05-07T11:16:02.413Z,10.71
2019-05-07T11:17:02.630Z,10.71
2019-05-07T11:18:02.692Z,10.71
2019-05-07T11:19:02.083Z,10.69
2019-05-07T11:20:01.927Z,10.64
2019-05-07T11:21:03.019Z,10.55
2019-05-07T11:22:01.884Z,10.51
2019-05-07T11:23:02.634Z,10.58
2019-05-07T11:24:03.185Z,10.65
2019-05-07T11:25:03.056Z,10.69
2019-05-07T11:26:02.586Z,10.86
2019-05-07T11:27:02.409Z,11.01
2019-05-07T11:28:02.806Z,11.08
2019-05-07T11:29:02.386Z,11.07
2019-05-07T11:30:02.738Z,11.16
2019-05-07T11:31:02.230Z,11.26
2019-05-07T11:32:01.732Z,11.35
2019-05-07T11:33:02.677Z,11.35
2019-05-07T11:34:02.786Z,11.19
2019-05-07T11:35:03.151Z,11.02
2019-05-07T11:36:02.241Z,10.83
2019-05-07T11:37:02.466Z,10.83
2019-05-07T11:38:10.940Z,10.82
2019-05-07T11:39:01.807Z,10.84
2019-05-07T11:40:03.179Z,10.97
2019-05-07T11:41:02.309Z,11.08
2019-05-07T11:42:02.386Z,11.16
2019-05-07T11:43:02.543Z,11.13
2019-05-07T11:44:01.836Z,11.02
2019-05-07T11:45:02.185Z,10.97
2019-05-07T11:46:01.972Z,10.92
2019-05-07T11:47:03.125Z,10.92
2019-05-07T11:48:01.905Z,10.89
2019-05-07T11:49:01.491Z,10.83
2019-05-07T11:50:03.184Z,10.69
2019-05-07T11:51:04.306Z,10.67
2019-05-07T11:52:01.447Z,10.65
2019-05-07T11:53:01.405Z,10.67
2019-05-07T11:54:02.088Z,10.67
2019-05-07T11:55:03.134Z,10.71
2019-05-07T11:56:02.544Z,10.76
2019-05-07T11:57:02.627Z,10.95
2019-05-07T11:58:02.444Z,11.18
2019-05-07T11:59:02.665Z,11.44
2019-05-07T12:00:02.805Z,12.12
2019-05-07T12:01:03.636Z,12.87
2019-05-07T12:02:01.345Z,13.26
2019-05-07T12:03:02.290Z,13.54
2019-05-07T12:04:02.003Z,13.55
2019-05-07T12:05:01.977Z,13.50
2019-05-07T12:06:02.118Z,13.28
2019-05-07T12:07:02.582Z,13.05
2019-05-07T12:08:02.343Z,12.84
2019-05-07T12:09:03.046Z,12.54
2019-05-07T12:10:04.750Z,12.43
2019-05-07T12:11:02.329Z,12.36
2019-05-07T12:12:02.425Z,12.36
2019-05-07T12:13:02.339Z,12.26
2019-05-07T12:14:02.023Z,12.25
2019-05-07T12:15:02.469Z,12.37
2019-05-07T12:16:02.982Z,12.65
2019-05-07T12:17:02.700Z,13.03
2019-05-07T12:18:03.020Z,13.58
2019-05-07T12:19:02.218Z,13.95
2019-05-07T12:20:02.361Z,14.23
2019-05-07T12:21:03.766Z,14.30
2019-05-07T12:22:02.721Z,14.33
2019-05-07T12:23:02.863Z,14.26
2019-05-07T12:24:02.175Z,14.04
2019-05-07T12:25:02.620Z,13.93
2019-05-07T12:26:02.235Z,14.12
2019-05-07T12:27:02.641Z,14.63
2019-05-07T12:28:02.373Z,15.25
2019-05-07T12:29:00.901Z,15.98
2019-05-07T12:30:00.890Z,16.34
2019-05-07T12:31:00.880Z,16.66
2019-05-07T12:32:02.638Z,16.98
2019-05-07T12:33:02.274Z,16.77
2019-05-07T12:34:02.602Z,16.37
2019-05-07T12:35:02.248Z,16.16
2019-05-07T12:36:02.006Z,16.02
2019-05-07T12:37:01.684Z,15.76
2019-05-07T12:38:02.099Z,15.52
2019-05-07T12:39:02.281Z,15.52
2019-05-07T12:40:01.873Z,15.50
2019-05-07T12:41:02.429Z,15.35
2019-05-07T12:42:00.837Z,15.57
2019-05-07T12:43:01.928Z,15.65
2019-05-07T12:44:13.084Z,15.73
2019-05-07T12:45:02.307Z,15.17
2019-05-07T12:46:02.757Z,14.62
2019-05-07T12:47:01.832Z,14.40
2019-05-07T12:48:02.392Z,14.33
2019-05-07T12:49:02.854Z,14.26
2019-05-07T12:50:00.682Z,14.26
2019-05-07T12:51:00.660Z,14.22
2019-05-07T12:52:02.334Z,14.11
2019-05-07T12:53:02.200Z,14.13
2019-05-07T12:54:02.840Z,14.12
2019-05-07T12:55:02.899Z,14.11
2019-05-07T12:56:02.160Z,13.87
2019-05-07T12:57:02.545Z,13.83
2019-05-07T12:58:02.291Z,13.87
2019-05-07T12:59:02.198Z,13.86
2019-05-07T13:00:02.085Z,13.85
2019-05-07T13:01:00.551Z,13.85
2019-05-07T13:02:00.575Z,13.83
2019-05-07T13:03:02.542Z,13.83
2019-05-07T13:04:02.511Z,13.76
2019-05-07T13:05:02.717Z,13.75
2019-05-07T13:06:02.449Z,13.78
2019-05-07T13:07:02.369Z,13.68
2019-05-07T13:08:00.471Z,13.55
2019-05-07T13:09:00.596Z,13.30